»·PEaware :: N900TB KVIS-KSNA

N900TB :: KVIS-KSNA

FLIGHT INFORMATION

Flight Status: Arrived
Operator: Privately registered:
United States
More flights under this callsign
Pilot: Saso K. (7898)
Aircraft: SOCATA TBM-900
(TBM9)
More flights by this aircraft type
Origin: KVIS Visalia Mun
United States
Destination: KSNA John Wayne-Orange Co
United States
More flights between these airports :: More routes between these airports
Route: +TTE V459 SLI
File this flight plan on PilotEdge
Remarks:
Altitude:
(Current/Filed)
20,000ft
Speed:
(Current/Filed)
300kts
Departed: 15-Jun-18 04:38 PM
Arrived: 15-Jun-18 05:47 PM
Distance/Time
Traveled:
176nm/1:09
Distance/Time
To Go:
Arrived

Flight Plot

Page will automatically refresh every two minutes.

Flight plan parsing failed; only flown route is shown


Map Options




Map Legend


Flown Route
Filed Route
Departure Airport
Arrival Airport
Navaid (VOR, NDB)
Fix

Horizontal Profiles

Position Reports

Time Latitude Longitude Heading Altitude Ground
Speed
15-Jun-18 16:31 36.326049 -119.398113 124 292ft 0kts
15-Jun-18 16:32 36.326049 -119.398113 124 292ft 0kts
15-Jun-18 16:33 36.325391 -119.397239 152 292ft 0kts
15-Jun-18 16:34 36.325391 -119.397239 152 292ft 0kts
15-Jun-18 16:35 36.325391 -119.397239 152 292ft 0kts
15-Jun-18 16:36 36.325517 -119.399352 260 292ft 5kts
15-Jun-18 16:37 36.324352 -119.399979 140 292ft 21kts
15-Jun-18 16:38 36.304535 -119.373367 109 1416ft 145kts
15-Jun-18 16:39 36.340517 -119.360777 346 2996ft 193kts
15-Jun-18 16:40 36.388464 -119.372509 346 5272ft 175kts
15-Jun-18 16:41 36.420239 -119.347492 115 6972ft 175kts
15-Jun-18 16:42 36.381252 -119.318222 157 8974ft 171kts
15-Jun-18 16:43 36.338479 -119.291220 157 10881ft 178kts
15-Jun-18 16:44 36.294817 -119.263347 157 12905ft 183kts
15-Jun-18 16:45 36.248688 -119.233907 158 14799ft 192kts
15-Jun-18 16:46 36.200285 -119.203044 158 16663ft 201kts
15-Jun-18 16:47 36.149847 -119.170876 158 18507ft 211kts
15-Jun-18 16:48 36.089648 -119.132739 156 18780ft 274kts
15-Jun-18 16:49 36.018696 -119.087688 156 18766ft 296kts
15-Jun-18 16:50 35.944767 -119.040865 156 18763ft 302kts
15-Jun-18 16:51 35.868010 -119.004348 166 18762ft 301kts
15-Jun-18 16:52 35.790787 -118.976021 166 18753ft 302kts
15-Jun-18 16:53 35.714104 -118.948009 166 18738ft 302kts
15-Jun-18 16:54 35.671886 -118.932639 166 18730ft 302kts
15-Jun-18 16:55 35.593349 -118.904070 166 18732ft 302kts
15-Jun-18 16:56 35.514601 -118.875462 166 18734ft 302kts
15-Jun-18 16:57 35.435831 -118.846776 165 18735ft 303kts
15-Jun-18 16:58 35.357819 -118.818416 165 18735ft 303kts
15-Jun-18 16:59 35.280465 -118.790350 165 18739ft 303kts
15-Jun-18 17:00 35.202406 -118.762084 165 18762ft 302kts
15-Jun-18 17:01 35.124551 -118.734287 166 18841ft 301kts
15-Jun-18 17:02 35.045508 -118.706230 166 18915ft 301kts
15-Jun-18 17:03 34.966555 -118.678082 164 18943ft 300kts
15-Jun-18 17:04 34.889250 -118.650366 164 18924ft 288kts
15-Jun-18 17:05 34.815190 -118.623962 164 18912ft 286kts
15-Jun-18 17:06 34.741646 -118.597778 164 18885ft 286kts
15-Jun-18 17:07 34.666789 -118.567221 155 18871ft 286kts
15-Jun-18 17:08 34.594928 -118.525257 155 17864ft 302kts
15-Jun-18 17:09 34.520058 -118.481423 155 16427ft 309kts
15-Jun-18 17:10 34.443848 -118.436896 155 14963ft 309kts
15-Jun-18 17:11 34.369249 -118.393393 156 13494ft 302kts
15-Jun-18 17:12 34.295130 -118.350242 156 12024ft 300kts
15-Jun-18 17:13 34.232990 -118.314170 156 11056ft 292kts
15-Jun-18 17:14 34.165406 -118.274981 156 10983ft 270kts
15-Jun-18 17:15 34.105838 -118.240504 156 10985ft 264kts
15-Jun-18 17:16 34.046666 -118.206312 156 10986ft 263kts
15-Jun-18 17:17 33.986698 -118.171728 156 10990ft 263kts
15-Jun-18 17:18 33.924248 -118.135730 156 9625ft 280kts
15-Jun-18 17:19 33.861888 -118.099858 156 8992ft 263kts
15-Jun-18 17:20 33.797801 -118.062979 154 8997ft 257kts
15-Jun-18 17:21 33.796191 -117.987351 61 7061ft 278kts
15-Jun-18 17:22 33.829780 -117.916623 61 4847ft 269kts
15-Jun-18 17:23 33.859873 -117.853441 61 3976ft 217kts
15-Jun-18 17:24 33.883530 -117.805505 61 3972ft 167kts
15-Jun-18 17:25 33.869310 -117.767846 176 3979ft 152kts
15-Jun-18 17:26 33.828532 -117.770834 211 3182ft 155kts
15-Jun-18 17:27 33.794022 -117.793662 208 2604ft 143kts
15-Jun-18 17:28 33.761914 -117.814132 207 1857ft 142kts
15-Jun-18 17:29 33.729648 -117.834621 207 1121ft 136kts
15-Jun-18 17:30 33.707362 -117.848792 207 623ft 83kts
15-Jun-18 17:31 33.687013 -117.861660 208 282ft 94kts
15-Jun-18 17:32 33.661762 -117.880193 227 1821ft 133kts
15-Jun-18 17:33 33.627860 -117.904412 205 3031ft 177kts
15-Jun-18 17:34 33.582731 -117.931046 205 3000ft 182kts
15-Jun-18 17:35 33.553876 -117.970296 296 2998ft 185kts
15-Jun-18 17:36 33.590060 -118.015451 311 3002ft 192kts
15-Jun-18 17:37 33.621137 -118.053158 313 3000ft 193kts
15-Jun-18 17:38 33.668097 -118.030998 41 4305ft 210kts
15-Jun-18 17:39 33.690662 -117.971143 76 5012ft 226kts
15-Jun-18 17:40 33.729587 -117.925249 28 4428ft 223kts
15-Jun-18 17:41 33.780175 -117.892685 41 3383ft 206kts
15-Jun-18 17:42 33.779823 -117.831815 142 2507ft 160kts
15-Jun-18 17:43 33.751612 -117.823099 192 1558ft 116kts
15-Jun-18 17:44 33.725143 -117.837486 206 1029ft 90kts
15-Jun-18 17:45 33.703569 -117.851138 206 532ft 87kts
15-Jun-18 17:46 33.683534 -117.863795 206 117ft 81kts
15-Jun-18 17:47 33.674729 -117.868611 163 47ft 5kts
15-Jun-18 17:48 33.674362 -117.868461 154 47ft 0kts
15-Jun-18 17:49 33.673675 -117.867062 119 46ft 2kts
15-Jun-18 17:50 33.672918 -117.867520 227 47ft 6kts
15-Jun-18 17:51 33.671028 -117.868967 219 49ft 17kts
15-Jun-18 17:52 33.667616 -117.872494 222 52ft 13kts
15-Jun-18 17:53 33.666599 -117.872399 49 52ft 3kts
15-Jun-18 17:54 33.666559 -117.872419 247 52ft 0kts

Navigation Log

Ident Type
Flight plan parsing failed, navigation log unavailable